Friday, February 12, 2016
14:09 UTC
  |  Log In   |  Register Free
Airport Search:

Live Oak County Airport
(8T6)

Live Oak County Airport Diagram
No Airport Diagram Available

FAA data valid effective Feb 4 2016 - Mar 31 2016 (unless otherwise noted).

 
 
 
 
 
 
 
 
 
 
 
 
 
 
Current Aviation Weather for 8T6

Weather Summary


Current weather conditions are not available for 8T6 - The nearest NOAA weather station is at BEA, (17.2 nm SE from 8T6)

The most recent METAR observation for 8T6 was updated at: 12:55 UTC
METAR for 8T6 is not available. Closest METAR is for KBEA 17.2 nm NW
KBEA  (17.2 nm NW)   (most recent observation was updated at 12:13 UTC)
121355Z AUTO 00000KT M1/4SM FG OVC002 08/08 A3020 RMK AO2 T00810081

KNOG  (27.9 nm NW)   (most recent observation was updated at 12:13 UTC)
121356Z AUTO 00000KT M1/4SM FG VV002 12/12 A3021 RMK AO2 SLP210 T01220117 TSNO $

TAF for 8T6 is not available.
GlobalAir.com is loading additional information.
 Current Weather at BEA
46.0 F° (8.0 C°)

Southeast winds at 4.6 mph
Pressure:
30.19 in
Humidity:
100%
Wind:
Southeast at 4.6 mph
Dew Point:
46.4 F° (8.0 C°)
Visibility:
0.25 mi
8T6 NOAA Radar




Find All Airport Services Find A Hotel Find A Rental Car Find A Golf Course Find A Restaurant $100 Hamburger



Airport Weather Forecast for 8T6

Translated METAR for KBEA (1355 UTC)
METAR:
KBEA 121355Z AUTO 00000KT M1/4SM FG OVC002 08/08 A3020 RMK AO2 T00810081
Conditions at:
KBEA (Beeville Muni, TX) observed 1355 UTC 12 February 2016
Temperature:
8°C (46.4°F)
Dewpoint:
8°C (46.4°F) [RH = 100]
Pressure:
30.2 inches Hg (1022.7 mb)
Winds:
from the N (000 degrees) at 0 mph (0 knots: 0 m/s)
Visibility:
.00 mile(s)
Ceiling:
200 feet AGL
Clouds:
Overcast Skies at 200 feet AGL
Remarks:
site is un-manned
site is automated and HAS a precipitation sensor

Translated TAF for TAF for 8T6 is not available. Refer to local area forecast.
FBO's on the Field
FBO Company Facility Photos Services Transportation Aviation Fuel Prices: Prices include tax
Catering Weather Repair Courtesy Rental Type 100LL JetA JetA+ MOGAS 8087
 
Live Oak Co. Airport

This FBO has not yet been rated
FS:Avfuel
Last Updated: Feb-11
Login to update fuel prices
SS:
Contact Live Oak Co. AirportMore FBO Information
 
Add another FBO Facility Photos Catering Weather Repair Courtesy Rental Type 100LL JetA JetA+ MOGAS 8087
Services Transportation Aviation Fuel Prices: Prices include tax


model-print
model-print
model-print
model-print